createdAt,value
2022-08-30T00:00:02.406Z,11.70
2022-08-30T00:02:36.126Z,12.80
2022-08-30T00:05:05.234Z,11.85
2022-08-30T00:07:33.425Z,13.43
2022-08-30T00:10:01.895Z,11.73
2022-08-30T00:12:31.924Z,12.85
2022-08-30T00:15:00.537Z,11.65
2022-08-30T00:17:29.021Z,11.77
2022-08-30T00:19:59.182Z,12.82
2022-08-30T00:22:27.449Z,13.25
2022-08-30T00:24:55.760Z,13.90
2022-08-30T00:27:24.043Z,13.73
2022-08-30T00:29:52.313Z,14.68
2022-08-30T00:32:21.498Z,12.52
2022-08-30T00:34:50.062Z,11.30
2022-08-30T00:37:20.242Z,11.02
2022-08-30T00:39:49.015Z,12.45
2022-08-30T00:42:18.626Z,13.75
2022-08-30T00:44:47.503Z,11.30
2022-08-30T00:47:16.044Z,11.25
2022-08-30T00:49:49.045Z,12.07
2022-08-30T00:52:21.802Z,12.98
2022-08-30T00:54:52.546Z,11.65
2022-08-30T00:57:21.595Z,11.32
2022-08-30T00:59:51.639Z,10.52
2022-08-30T01:02:23.833Z,12.43
2022-08-30T01:04:53.061Z,12.27
2022-08-30T01:07:22.816Z,11.68
2022-08-30T01:09:51.301Z,10.95
2022-08-30T01:12:19.702Z,12.00
2022-08-30T01:14:48.559Z,10.05
2022-08-30T01:17:17.414Z,13.50
2022-08-30T01:19:53.873Z,12.07
2022-08-30T01:22:29.792Z,11.63
2022-08-30T01:25:01.567Z,13.23
2022-08-30T01:27:32.225Z,11.93
2022-08-30T01:30:00.836Z,11.60
2022-08-30T01:32:30.465Z,12.70
2022-08-30T01:34:59.520Z,11.20
2022-08-30T01:37:31.891Z,12.80
2022-08-30T01:40:02.002Z,10.55
2022-08-30T01:42:30.434Z,13.45
2022-08-30T01:44:58.753Z,13.05
2022-08-30T01:47:27.502Z,10.80
2022-08-30T01:49:56.091Z,12.10
2022-08-30T01:52:25.021Z,11.82
2022-08-30T01:54:54.368Z,12.30
2022-08-30T01:57:26.910Z,10.63
2022-08-30T01:59:55.451Z,10.70
2022-08-30T02:02:27.051Z,12.70
2022-08-30T02:07:24.068Z,10.88
2022-08-30T02:09:53.033Z,12.20
2022-08-30T02:12:23.057Z,9.75
2022-08-30T02:14:51.383Z,12.13
2022-08-30T02:17:20.116Z,9.93
2022-08-30T02:19:48.441Z,10.52
2022-08-30T02:22:17.202Z,11.07
2022-08-30T02:24:45.553Z,9.43
2022-08-30T02:27:13.862Z,11.52
2022-08-30T02:29:43.672Z,10.20
2022-08-30T02:32:12.059Z,12.00
2022-08-30T02:34:40.262Z,10.90
2022-08-30T02:37:09.115Z,12.70
2022-08-30T02:39:37.750Z,10.55
2022-08-30T02:42:06.737Z,10.55
2022-08-30T02:44:34.994Z,11.15
2022-08-30T02:47:05.121Z,11.18
2022-08-30T02:49:34.261Z,11.00
2022-08-30T02:52:04.235Z,11.40
2022-08-30T02:54:33.528Z,9.32
2022-08-30T02:57:05.007Z,10.38
2022-08-30T03:02:02.023Z,11.65
2022-08-30T03:04:31.804Z,9.90
2022-08-30T03:07:00.137Z,10.23
2022-08-30T03:09:28.650Z,9.43
2022-08-30T03:11:57.071Z,9.80
2022-08-30T03:14:25.492Z,9.73
2022-08-30T03:16:54.175Z,10.93
2022-08-30T03:19:22.943Z,11.05
2022-08-30T03:21:53.255Z,10.45
2022-08-30T03:24:22.023Z,9.93
2022-08-30T03:26:50.246Z,11.68
2022-08-30T03:29:18.561Z,10.73
2022-08-30T03:31:53.149Z,10.43
2022-08-30T03:34:22.804Z,9.65
2022-08-30T03:36:53.200Z,10.30
2022-08-30T03:39:22.665Z,9.05
2022-08-30T03:41:50.914Z,10.10
2022-08-30T03:44:20.322Z,10.82
2022-08-30T03:46:50.108Z,9.38
2022-08-30T03:49:18.537Z,8.85
2022-08-30T03:51:47.545Z,10.88
2022-08-30T03:54:17.300Z,8.60
2022-08-30T03:56:45.826Z,9.88
2022-08-30T03:59:14.402Z,10.30
2022-08-30T04:01:43.137Z,9.88
2022-08-30T04:04:12.212Z,11.45
2022-08-30T04:06:40.529Z,9.52
2022-08-30T04:09:08.822Z,12.93
2022-08-30T04:11:38.613Z,11.40
2022-08-30T04:14:06.949Z,11.05
2022-08-30T04:16:35.397Z,10.57
2022-08-30T04:19:04.152Z,11.18
2022-08-30T04:21:32.766Z,10.63
2022-08-30T04:24:03.796Z,9.80
2022-08-30T04:26:32.066Z,10.50
2022-08-30T04:29:01.697Z,9.50
2022-08-30T04:31:30.371Z,9.43
2022-08-30T04:33:58.801Z,9.75
2022-08-30T04:36:27.407Z,9.57
2022-08-30T04:38:55.747Z,12.13
2022-08-30T04:41:24.606Z,9.48
2022-08-30T04:43:53.082Z,8.48
2022-08-30T04:46:22.822Z,9.75
2022-08-30T04:48:51.299Z,10.40
2022-08-30T04:51:20.164Z,10.55
2022-08-30T04:53:48.439Z,9.05
2022-08-30T04:56:19.657Z,9.00
2022-08-30T04:58:49.232Z,9.90
2022-08-30T05:01:20.522Z,8.98
2022-08-30T05:03:54.809Z,12.15
2022-08-30T05:06:24.564Z,14.13
2022-08-30T05:08:53.893Z,12.00
2022-08-30T05:11:23.102Z,10.32
2022-08-30T05:13:51.684Z,10.38
2022-08-30T05:16:20.227Z,10.95
2022-08-30T05:18:50.746Z,12.68
2022-08-30T05:21:22.862Z,10.43
2022-08-30T05:23:53.872Z,11.50
2022-08-30T05:26:25.120Z,11.18
2022-08-30T05:28:53.851Z,10.00
2022-08-30T05:31:25.571Z,9.57
2022-08-30T05:33:55.393Z,8.55
2022-08-30T05:36:28.264Z,11.02
2022-08-30T05:38:57.010Z,8.73
2022-08-30T05:41:27.244Z,8.93
2022-08-30T05:43:56.558Z,10.15
2022-08-30T05:46:25.670Z,10.27
2022-08-30T05:48:54.172Z,10.13
2022-08-30T05:51:25.643Z,10.07
2022-08-30T05:53:54.971Z,9.25
2022-08-30T05:56:26.019Z,11.25
2022-08-30T05:58:55.032Z,9.25
2022-08-30T06:01:25.344Z,10.48
2022-08-30T06:03:54.638Z,10.70
2022-08-30T06:06:24.531Z,8.75
2022-08-30T06:08:53.563Z,10.07
2022-08-30T06:11:23.363Z,9.27
2022-08-30T06:13:53.714Z,8.23
2022-08-30T06:16:24.537Z,10.30
2022-08-30T06:18:53.115Z,10.50
2022-08-30T06:21:23.612Z,8.77
2022-08-30T06:23:54.525Z,11.30
2022-08-30T06:26:23.643Z,10.55
2022-08-30T06:28:52.320Z,10.45
2022-08-30T06:31:22.103Z,8.35
2022-08-30T06:33:51.018Z,9.18
2022-08-30T06:36:21.229Z,9.02
2022-08-30T06:38:53.205Z,10.65
2022-08-30T06:41:23.837Z,11.05
2022-08-30T06:43:52.427Z,9.32
2022-08-30T06:46:22.902Z,11.50
2022-08-30T06:48:51.801Z,9.23
2022-08-30T06:51:21.408Z,12.05
2022-08-30T06:53:50.260Z,9.80
2022-08-30T06:56:22.198Z,9.68
2022-08-30T06:58:51.601Z,10.18
2022-08-30T07:01:23.119Z,8.05
2022-08-30T07:03:51.935Z,10.93
2022-08-30T07:06:20.964Z,9.57
2022-08-30T07:08:50.015Z,8.93
2022-08-30T07:11:32.106Z,9.13
2022-08-30T07:14:00.995Z,9.50
2022-08-30T07:16:29.599Z,10.50
2022-08-30T07:18:58.713Z,10.63
2022-08-30T07:21:29.231Z,10.73
2022-08-30T07:23:58.778Z,10.43
2022-08-30T07:26:31.567Z,9.05
2022-08-30T07:29:00.675Z,9.15
2022-08-30T07:31:29.852Z,10.00
2022-08-30T07:33:58.406Z,11.82
2022-08-30T07:36:26.719Z,11.05
2022-08-30T07:38:55.613Z,9.52
2022-08-30T07:41:26.830Z,9.90
2022-08-30T07:43:57.880Z,8.55
2022-08-30T07:46:27.499Z,8.45
2022-08-30T07:48:56.216Z,8.70
2022-08-30T07:51:28.113Z,9.13
2022-08-30T07:53:57.972Z,11.82
2022-08-30T07:56:26.503Z,10.75
2022-08-30T07:58:56.155Z,10.20
2022-08-30T08:01:25.365Z,9.80
2022-08-30T08:03:53.861Z,9.98
2022-08-30T08:06:24.304Z,10.63
2022-08-30T08:08:54.391Z,12.43
2022-08-30T08:11:28.332Z,9.90
2022-08-30T08:13:58.987Z,10.65
2022-08-30T08:16:32.614Z,10.05
2022-08-30T08:19:01.070Z,14.70
2022-08-30T08:21:29.643Z,12.43
2022-08-30T08:23:58.065Z,12.57
2022-08-30T08:26:27.008Z,11.98
2022-08-30T08:28:55.515Z,12.02
2022-08-30T08:31:29.874Z,13.57
2022-08-30T08:34:03.407Z,11.65
2022-08-30T08:36:32.617Z,11.77
2022-08-30T08:39:01.064Z,14.30
2022-08-30T08:41:41.952Z,12.32
2022-08-30T08:44:16.125Z,13.03
2022-08-30T08:46:54.098Z,12.82
2022-08-30T08:49:22.391Z,13.70
2022-08-30T08:52:08.698Z,13.13
2022-08-30T08:54:44.111Z,10.50
2022-08-30T08:57:15.985Z,12.88
2022-08-30T08:59:45.585Z,14.40
2022-08-30T09:02:24.135Z,14.75
2022-08-30T09:04:55.932Z,12.00
2022-08-30T09:07:27.878Z,11.93
2022-08-30T09:09:58.120Z,11.77
2022-08-30T09:12:26.396Z,11.32
2022-08-30T09:14:56.974Z,12.07
2022-08-30T09:17:29.687Z,14.32
2022-08-30T09:20:02.603Z,13.52
2022-08-30T09:22:36.626Z,10.95
2022-08-30T09:25:08.419Z,11.48
2022-08-30T09:30:14.207Z,12.77
2022-08-30T09:32:53.094Z,11.88
2022-08-30T09:35:27.604Z,12.90
2022-08-30T09:37:57.863Z,13.48
2022-08-30T09:40:33.728Z,11.00
2022-08-30T09:43:06.212Z,11.65
2022-08-30T09:45:37.177Z,12.80
2022-08-30T09:48:33.028Z,10.43
2022-08-30T09:51:23.101Z,10.98
2022-08-30T09:54:17.333Z,11.70
2022-08-30T09:57:01.035Z,9.95
2022-08-30T09:59:42.338Z,9.07
2022-08-30T10:02:34.502Z,9.73
2022-08-30T10:05:09.089Z,10.15
2022-08-30T10:07:47.617Z,10.35
2022-08-30T10:10:20.624Z,9.90
2022-08-30T10:12:58.644Z,11.07
2022-08-30T10:15:30.995Z,11.13
2022-08-30T10:18:08.149Z,11.23
2022-08-30T10:20:44.248Z,11.95
2022-08-30T10:23:17.991Z,12.38
2022-08-30T10:25:51.017Z,8.68
2022-08-30T10:28:28.360Z,11.27
2022-08-30T10:31:02.586Z,12.30
2022-08-30T10:33:36.626Z,10.85
2022-08-30T10:36:11.752Z,11.30
2022-08-30T10:38:42.252Z,10.77
2022-08-30T10:41:21.295Z,10.93
2022-08-30T10:43:57.272Z,11.25
2022-08-30T10:46:32.620Z,9.23
2022-08-30T10:49:03.891Z,10.57
2022-08-30T10:51:37.784Z,9.25
2022-08-30T10:54:18.521Z,11.95
2022-08-30T10:56:51.451Z,9.30
2022-08-30T10:59:20.721Z,10.38
2022-08-30T11:02:21.407Z,11.45
2022-08-30T11:05:09.472Z,10.23
2022-08-30T11:07:49.417Z,12.00
2022-08-30T11:10:39.392Z,10.90
2022-08-30T11:13:12.345Z,10.52
2022-08-30T11:15:56.475Z,12.00
2022-08-30T11:18:27.426Z,12.60
2022-08-30T11:21:17.009Z,13.32
2022-08-30T11:24:01.736Z,14.65
2022-08-30T11:26:57.518Z,12.00
2022-08-30T11:29:32.744Z,10.23
2022-08-30T11:32:21.008Z,10.30
2022-08-30T11:34:57.489Z,8.35
2022-08-30T11:37:38.668Z,12.10
2022-08-30T11:40:27.727Z,12.53
2022-08-30T11:42:57.539Z,9.43
2022-08-30T11:45:52.552Z,9.73
2022-08-30T11:48:53.708Z,9.88
2022-08-30T11:52:08.397Z,11.40
2022-08-30T11:54:53.109Z,10.35
2022-08-30T11:57:31.257Z,11.40
2022-08-30T12:00:07.954Z,9.52
2022-08-30T12:02:55.259Z,11.68
2022-08-30T12:05:53.838Z,9.80
2022-08-30T12:08:47.670Z,10.05
2022-08-30T12:12:02.470Z,9.75
2022-08-30T12:14:44.592Z,9.50
2022-08-30T12:17:48.550Z,10.73
2022-08-30T12:20:28.411Z,9.95
2022-08-30T12:22:58.886Z,9.32
2022-08-30T12:25:31.125Z,9.40
2022-08-30T12:28:14.964Z,10.70
2022-08-30T12:30:46.829Z,8.85
2022-08-30T12:33:29.604Z,10.07
2022-08-30T12:35:59.632Z,10.48
2022-08-30T12:38:29.823Z,9.30
2022-08-30T12:41:01.964Z,9.73
2022-08-30T12:43:38.947Z,10.75
2022-08-30T12:46:15.170Z,9.98
2022-08-30T12:48:44.982Z,9.40
2022-08-30T12:51:29.248Z,9.50
2022-08-30T12:54:07.041Z,9.95
2022-08-30T12:56:54.667Z,12.35
2022-08-30T12:59:54.181Z,9.15
2022-08-30T13:02:30.086Z,9.32
2022-08-30T13:04:59.428Z,9.80
2022-08-30T13:07:32.769Z,9.13
2022-08-30T13:10:19.545Z,10.00
2022-08-30T13:13:06.373Z,9.00
2022-08-30T13:15:42.027Z,9.18
2022-08-30T13:18:29.952Z,12.18
2022-08-30T13:21:22.378Z,10.88
2022-08-30T13:23:51.797Z,9.88
2022-08-30T13:26:23.050Z,10.57
2022-08-30T13:31:22.452Z,9.65
2022-08-30T13:33:53.708Z,10.73
2022-08-30T13:36:24.651Z,10.73
2022-08-30T13:38:53.349Z,10.00
2022-08-30T13:41:21.854Z,8.82
2022-08-30T13:46:42.673Z,10.68
2022-08-30T13:52:20.343Z,10.93
2022-08-30T13:54:50.183Z,10.73
2022-08-30T14:00:14.473Z,11.23
2022-08-30T14:02:50.135Z,10.18
2022-08-30T14:05:47.503Z,10.38
2022-08-30T14:11:03.802Z,9.65
2022-08-30T14:13:33.133Z,11.82
2022-08-30T14:18:53.691Z,10.75
2022-08-30T14:21:24.751Z,10.60
2022-08-30T14:23:53.625Z,10.20
2022-08-30T14:26:24.370Z,11.80
2022-08-30T14:28:54.980Z,11.18
2022-08-30T14:31:23.307Z,10.20
2022-08-30T14:33:51.923Z,9.95
2022-08-30T14:36:20.706Z,8.98
2022-08-30T14:38:50.539Z,10.20
2022-08-30T14:41:20.138Z,9.77
2022-08-30T14:43:48.530Z,10.77
2022-08-30T14:46:17.117Z,10.20
2022-08-30T14:48:45.462Z,8.27
2022-08-30T14:51:16.985Z,10.50
2022-08-30T14:53:45.866Z,9.80
2022-08-30T14:56:19.643Z,9.85
2022-08-30T14:58:50.060Z,11.25
2022-08-30T15:01:19.811Z,9.43
2022-08-30T15:03:48.202Z,9.55
2022-08-30T15:06:16.907Z,9.15
2022-08-30T15:08:47.637Z,9.27
2022-08-30T15:11:20.075Z,9.23
2022-08-30T15:13:48.755Z,10.05
2022-08-30T15:16:20.480Z,9.05
2022-08-30T15:21:24.035Z,8.75
2022-08-30T15:23:52.980Z,10.80
2022-08-30T15:26:22.764Z,8.68
2022-08-30T15:28:51.395Z,7.50
2022-08-30T15:31:21.071Z,8.00
2022-08-30T15:33:51.407Z,8.40
2022-08-30T15:36:19.747Z,9.32
2022-08-30T15:38:48.233Z,9.15
2022-08-30T15:41:16.867Z,8.02
2022-08-30T15:43:46.526Z,9.48
2022-08-30T15:46:22.526Z,9.25
2022-08-30T15:48:52.984Z,7.53
2022-08-30T15:51:22.048Z,8.15
2022-08-30T15:53:52.632Z,8.68
2022-08-30T15:56:21.442Z,7.50
2022-08-30T15:58:53.062Z,8.80
2022-08-30T16:01:30.325Z,8.55
2022-08-30T16:06:37.234Z,9.60
2022-08-30T16:09:06.859Z,8.88
2022-08-30T16:11:35.857Z,7.68
2022-08-30T16:14:06.930Z,8.27
2022-08-30T16:16:37.604Z,8.73
2022-08-30T16:19:06.223Z,7.95
2022-08-30T16:21:36.886Z,10.27
2022-08-30T16:24:07.337Z,7.55
2022-08-30T16:26:39.369Z,9.23
2022-08-30T16:29:09.521Z,7.93
2022-08-30T16:31:38.422Z,8.38
2022-08-30T16:34:07.837Z,7.32
2022-08-30T16:36:36.880Z,8.43
2022-08-30T16:39:08.389Z,7.95
2022-08-30T16:41:37.968Z,8.45
2022-08-30T16:44:08.493Z,9.43
2022-08-30T16:46:37.743Z,8.85
2022-08-30T16:49:06.755Z,9.73
2022-08-30T16:51:38.456Z,8.07
2022-08-30T16:54:08.295Z,8.00
2022-08-30T16:56:38.535Z,8.15
2022-08-30T16:59:11.355Z,7.68
2022-08-30T17:01:42.314Z,9.23
2022-08-30T17:04:12.982Z,10.02
2022-08-30T17:06:44.131Z,9.50
2022-08-30T17:09:12.433Z,9.40
2022-08-30T17:11:41.561Z,9.90
2022-08-30T17:14:11.498Z,10.65
2022-08-30T17:16:41.419Z,11.27
2022-08-30T17:19:11.676Z,13.77
2022-08-30T17:21:39.981Z,11.63
2022-08-30T17:24:08.502Z,11.93
2022-08-30T17:26:38.411Z,10.93
2022-08-30T17:29:07.743Z,11.93
2022-08-30T17:31:38.880Z,11.90
2022-08-30T17:34:07.489Z,11.38
2022-08-30T17:36:37.227Z,12.25
2022-08-30T17:39:11.089Z,11.85
2022-08-30T17:41:45.194Z,12.32
2022-08-30T17:44:19.568Z,10.93
2022-08-30T17:46:49.345Z,9.45
2022-08-30T17:49:17.755Z,10.15
2022-08-30T17:51:47.682Z,11.45
2022-08-30T17:54:18.020Z,112.60
2022-08-30T17:56:46.375Z,283.45
2022-08-30T17:59:16.128Z,294.23
2022-08-30T18:01:45.486Z,361.92
2022-08-30T18:04:19.659Z,359.58
2022-08-30T18:06:49.363Z,312.92
2022-08-30T18:09:18.020Z,294.13
2022-08-30T18:11:46.382Z,261.13
2022-08-30T18:14:17.604Z,217.75
2022-08-30T18:16:54.268Z,188.10
2022-08-30T18:19:36.321Z,261.15
2022-08-30T18:22:14.260Z,270.25
2022-08-30T18:24:42.756Z,321.58
2022-08-30T18:27:11.091Z,360.77
2022-08-30T18:29:42.084Z,442.42
2022-08-30T18:32:11.616Z,247.13
2022-08-30T18:34:42.834Z,175.77
2022-08-30T18:37:12.470Z,178.05
2022-08-30T18:39:41.324Z,181.15
2022-08-30T18:42:10.417Z,182.73
2022-08-30T18:44:39.899Z,162.60
2022-08-30T18:47:09.451Z,185.32
2022-08-30T18:49:38.420Z,163.00
2022-08-30T18:52:10.002Z,177.18
2022-08-30T18:54:40.471Z,173.63
2022-08-30T18:57:10.229Z,194.98
2022-08-30T18:59:38.940Z,182.40
2022-08-30T19:02:12.653Z,170.13
2022-08-30T19:04:42.775Z,176.68
2022-08-30T19:07:14.829Z,157.32
2022-08-30T19:09:43.732Z,111.93
2022-08-30T19:12:14.489Z,123.40
2022-08-30T19:14:43.090Z,83.00
2022-08-30T19:17:11.962Z,97.68
2022-08-30T19:19:48.556Z,100.28
2022-08-30T19:22:21.983Z,90.78
2022-08-30T19:24:51.301Z,97.75
2022-08-30T19:27:37.319Z,94.30
2022-08-30T19:30:09.166Z,112.75
2022-08-30T19:32:37.647Z,92.85
2022-08-30T19:35:06.671Z,77.85
2022-08-30T19:37:36.738Z,73.90
2022-08-30T19:40:08.172Z,62.17
2022-08-30T19:42:41.801Z,50.08
2022-08-30T19:45:18.208Z,59.45
2022-08-30T19:47:47.145Z,46.33
2022-08-30T19:50:16.137Z,40.83
2022-08-30T19:52:52.643Z,101.00
2022-08-30T19:55:37.078Z,239.38
2022-08-30T19:58:05.625Z,215.95
2022-08-30T20:00:33.838Z,236.50
2022-08-30T20:03:05.789Z,212.18
2022-08-30T20:05:34.945Z,155.95
2022-08-30T20:08:05.678Z,151.73
2022-08-30T20:10:34.407Z,128.83
2022-08-30T20:13:02.883Z,163.82
2022-08-30T20:15:33.547Z,337.92
2022-08-30T20:18:05.825Z,313.80
2022-08-30T20:20:49.837Z,340.05
2022-08-30T20:23:22.740Z,163.57
2022-08-30T20:25:51.924Z,131.73
2022-08-30T20:28:20.579Z,111.25
2022-08-30T20:30:49.315Z,116.57
2022-08-30T20:33:17.679Z,111.68
2022-08-30T20:35:49.350Z,109.00
2022-08-30T20:38:21.941Z,81.75
2022-08-30T20:40:52.434Z,100.78
2022-08-30T20:43:22.386Z,60.45
2022-08-30T20:45:51.172Z,55.80
2022-08-30T20:48:19.889Z,47.92
2022-08-30T20:50:48.639Z,55.85
2022-08-30T20:53:17.383Z,37.65
2022-08-30T20:55:48.743Z,32.53
2022-08-30T20:58:17.760Z,35.97
2022-08-30T21:00:51.215Z,33.75
2022-08-30T21:03:26.378Z,27.50
2022-08-30T21:05:57.370Z,25.10
2022-08-30T21:08:26.049Z,21.92
2022-08-30T21:10:56.068Z,16.52
2022-08-30T21:13:24.820Z,15.30
2022-08-30T21:15:54.777Z,18.90
2022-08-30T21:18:25.898Z,17.48
2022-08-30T21:20:54.548Z,15.23
2022-08-30T21:23:23.162Z,18.95
2022-08-30T21:25:51.801Z,13.20
2022-08-30T21:28:21.817Z,13.20
2022-08-30T21:30:50.488Z,13.85
2022-08-30T21:33:19.221Z,17.20
2022-08-30T21:36:05.477Z,13.85
2022-08-30T21:38:34.109Z,14.88
2022-08-30T21:41:03.585Z,14.73
2022-08-30T21:43:33.549Z,14.98
2022-08-30T21:46:06.710Z,14.48
2022-08-30T21:48:37.400Z,13.95
2022-08-30T21:51:10.036Z,16.10
2022-08-30T21:53:39.069Z,11.63
2022-08-30T21:56:13.459Z,16.55
2022-08-30T21:58:47.567Z,15.07
2022-08-30T22:01:18.907Z,14.95
2022-08-30T22:03:47.402Z,15.38
2022-08-30T22:06:16.480Z,13.90
2022-08-30T22:08:46.591Z,15.95
2022-08-30T22:11:19.409Z,15.90
2022-08-30T22:13:50.688Z,13.07
2022-08-30T22:16:21.747Z,15.55
2022-08-30T22:18:50.144Z,12.65
2022-08-30T22:21:22.284Z,18.55
2022-08-30T22:23:50.789Z,14.32
2022-08-30T22:26:20.661Z,12.85
2022-08-30T22:28:50.389Z,14.55
2022-08-30T22:31:19.931Z,15.00
2022-08-30T22:33:49.128Z,13.27
2022-08-30T22:36:20.984Z,14.63
2022-08-30T22:38:52.549Z,15.15
2022-08-30T22:41:25.453Z,12.13
2022-08-30T22:43:55.547Z,16.17
2022-08-30T22:46:29.608Z,14.23
2022-08-30T22:49:02.895Z,16.10
2022-08-30T22:51:31.169Z,14.30
2022-08-30T22:54:00.857Z,15.40
2022-08-30T22:56:30.787Z,16.45
2022-08-30T22:59:00.547Z,15.85
2022-08-30T23:01:31.847Z,14.57
2022-08-30T23:04:01.393Z,18.85
2022-08-30T23:06:30.606Z,15.55
2022-08-30T23:08:59.366Z,14.05
2022-08-30T23:11:27.947Z,17.15
2022-08-30T23:14:00.272Z,15.93
2022-08-30T23:16:28.688Z,16.52
2022-08-30T23:18:57.106Z,13.85
2022-08-30T23:21:28.444Z,15.23
2022-08-30T23:24:15.505Z,14.75
2022-08-30T23:27:03.345Z,16.52
2022-08-30T23:29:51.712Z,16.23
2022-08-30T23:32:38.226Z,15.85
2022-08-30T23:35:29.523Z,13.52
2022-08-30T23:38:16.327Z,16.85
2022-08-30T23:41:02.216Z,14.85
2022-08-30T23:43:48.097Z,14.07
2022-08-30T23:46:35.416Z,14.82
2022-08-30T23:49:21.330Z,16.42
2022-08-30T23:52:07.620Z,19.83
2022-08-30T23:54:55.763Z,14.30
2022-08-30T23:57:44.103Z,16.00
